createdAt,value
2018-03-02T00:00:43.750Z,-6.19
2018-03-02T00:03:09.567Z,-6.38
2018-03-02T00:05:35.377Z,-7.43
2018-03-02T00:08:01.235Z,-7.94
2018-03-02T00:10:27.052Z,-8.01
2018-03-02T00:12:52.934Z,-8.05
2018-03-02T00:15:18.696Z,-8.02
2018-03-02T00:17:44.606Z,-8.14
2018-03-02T00:20:10.432Z,-8.16
2018-03-02T00:22:36.230Z,-8.15
2018-03-02T00:25:02.068Z,-8.24
2018-03-02T00:27:27.866Z,-8.27
2018-03-02T00:29:53.663Z,-8.34
2018-03-02T00:32:19.460Z,-8.39
2018-03-02T00:34:45.276Z,-8.41
2018-03-02T00:37:11.056Z,-8.40
2018-03-02T00:39:36.862Z,-8.57
2018-03-02T00:42:02.660Z,-8.52
2018-03-02T00:44:28.467Z,-8.52
2018-03-02T00:46:54.247Z,-8.45
2018-03-02T00:49:20.039Z,-8.54
2018-03-02T00:51:45.868Z,-8.53
2018-03-02T00:54:11.660Z,-8.63
2018-03-02T00:56:37.454Z,-8.65
2018-03-02T00:59:03.247Z,-8.69
2018-03-02T01:01:29.057Z,-8.75
2018-03-02T01:03:54.867Z,-8.77
2018-03-02T01:06:20.779Z,-8.69
2018-03-02T01:08:46.576Z,-8.78
2018-03-02T01:11:12.362Z,-8.85
2018-03-02T01:13:38.191Z,-8.91
2018-03-02T01:16:03.988Z,-8.78
2018-03-02T01:18:29.775Z,-8.81
2018-03-02T01:20:55.554Z,-8.75
2018-03-02T01:23:21.339Z,-8.81
2018-03-02T01:25:47.200Z,-8.81
2018-03-02T01:28:13.015Z,-8.91
2018-03-02T01:30:38.807Z,-8.80
2018-03-02T01:33:04.622Z,-8.89
2018-03-02T01:35:30.418Z,-9.04
2018-03-02T01:37:56.203Z,-9.08
2018-03-02T01:40:22.030Z,-9.04
2018-03-02T01:42:47.873Z,-8.99
2018-03-02T01:45:13.672Z,-9.11
2018-03-02T01:47:39.468Z,-9.06
2018-03-02T01:50:05.291Z,-9.06
2018-03-02T01:52:31.103Z,-9.11
2018-03-02T01:54:56.901Z,-9.00
2018-03-02T01:57:22.688Z,-9.14
2018-03-02T01:59:48.675Z,-9.17
2018-03-02T02:02:14.464Z,-9.20
2018-03-02T02:04:40.248Z,-9.37
2018-03-02T02:07:06.064Z,-9.24
2018-03-02T02:09:31.855Z,-9.22
2018-03-02T02:11:57.650Z,-9.30
2018-03-02T02:14:23.509Z,-9.34
2018-03-02T02:16:49.310Z,-9.32
2018-03-02T02:19:15.145Z,-9.30
2018-03-02T02:21:41.048Z,-9.37
2018-03-02T02:24:06.843Z,-9.46
2018-03-02T02:26:32.648Z,-9.43
2018-03-02T02:28:58.471Z,-9.54
2018-03-02T02:31:25.268Z,-9.52
2018-03-02T02:33:51.107Z,-9.54
2018-03-02T02:36:17.803Z,-9.58
2018-03-02T02:38:43.575Z,-9.60
2018-03-02T02:41:09.372Z,-9.50
2018-03-02T02:43:35.152Z,-9.55
2018-03-02T02:46:00.968Z,-9.57
2018-03-02T02:48:26.780Z,-9.64
2018-03-02T02:50:52.576Z,-9.67
2018-03-02T02:53:18.355Z,-9.71
2018-03-02T02:55:44.169Z,-9.70
2018-03-02T02:58:09.959Z,-9.72
2018-03-02T03:00:35.773Z,-9.77
2018-03-02T03:03:01.579Z,-9.76
2018-03-02T03:05:27.367Z,-9.83
2018-03-02T03:07:53.326Z,-9.71
2018-03-02T03:10:19.099Z,-9.84
2018-03-02T03:12:44.867Z,-9.70
2018-03-02T03:15:10.670Z,-9.78
2018-03-02T03:17:36.611Z,-9.76
2018-03-02T03:20:02.427Z,-9.82
2018-03-02T03:22:28.664Z,-9.79
2018-03-02T03:24:54.457Z,-9.85
2018-03-02T03:27:20.243Z,-9.82
2018-03-02T03:29:46.062Z,-9.82
2018-03-02T03:32:11.855Z,-9.82
2018-03-02T03:34:37.650Z,-9.78
2018-03-02T03:37:03.476Z,-9.78
2018-03-02T03:39:29.264Z,-9.89
2018-03-02T03:41:55.058Z,-9.81
2018-03-02T03:44:20.871Z,-9.82
2018-03-02T03:46:46.655Z,-9.86
2018-03-02T03:49:12.443Z,-9.75
2018-03-02T03:51:38.500Z,-9.87
2018-03-02T03:54:04.296Z,-9.87
2018-03-02T03:56:30.102Z,-9.95
2018-03-02T03:58:55.907Z,-9.90
2018-03-02T04:01:21.694Z,-9.94
2018-03-02T04:03:47.530Z,-9.97
2018-03-02T04:06:13.334Z,-10.06
2018-03-02T04:08:39.108Z,-10.16
2018-03-02T04:11:04.899Z,-10.27
2018-03-02T04:13:30.707Z,-10.18
2018-03-02T04:15:56.499Z,-10.20
2018-03-02T04:18:22.296Z,-10.25
2018-03-02T04:20:48.100Z,-10.11
2018-03-02T04:23:13.902Z,-10.19
2018-03-02T04:25:39.693Z,-10.29
2018-03-02T04:28:05.518Z,-10.30
2018-03-02T04:30:31.305Z,-10.35
2018-03-02T04:32:57.196Z,-10.35
2018-03-02T04:35:22.976Z,-10.43
2018-03-02T04:37:48.772Z,-10.33
2018-03-02T04:40:14.675Z,-10.34
2018-03-02T04:42:40.455Z,-10.45
2018-03-02T04:45:06.230Z,-10.55
2018-03-02T04:47:32.023Z,-10.52
2018-03-02T04:49:57.831Z,-10.56
2018-03-02T04:52:23.607Z,-10.59
2018-03-02T04:54:49.407Z,-10.62
2018-03-02T04:57:15.228Z,-10.55
2018-03-02T04:59:41.009Z,-10.64
2018-03-02T05:02:06.836Z,-10.67
2018-03-02T05:04:32.629Z,-10.72
2018-03-02T05:06:58.447Z,-10.63
2018-03-02T05:09:24.249Z,-10.73
2018-03-02T05:11:50.020Z,-10.61
2018-03-02T05:14:15.820Z,-10.68
2018-03-02T05:16:41.627Z,-10.77
2018-03-02T05:19:07.472Z,-10.80
2018-03-02T05:21:33.325Z,-10.71
2018-03-02T05:23:59.074Z,-10.76
2018-03-02T05:26:24.855Z,-10.74
2018-03-02T05:28:50.666Z,-10.74
2018-03-02T05:31:16.449Z,-10.78
2018-03-02T05:33:42.244Z,-10.85
2018-03-02T05:36:08.308Z,-10.83
2018-03-02T05:38:34.092Z,-10.84
2018-03-02T05:40:59.887Z,-10.92
2018-03-02T05:43:25.684Z,-10.84
2018-03-02T05:45:51.508Z,-10.82
2018-03-02T05:50:42.990Z,-10.86
2018-03-02T05:53:08.798Z,-10.19
2018-03-02T05:55:34.590Z,-10.42
2018-03-02T05:58:00.391Z,-10.33
2018-03-02T06:00:26.385Z,-10.06
2018-03-02T06:02:52.170Z,-9.87
2018-03-02T06:05:17.959Z,-9.94
2018-03-02T06:07:44.019Z,-10.50
2018-03-02T06:10:09.790Z,-10.52
2018-03-02T06:12:35.575Z,-10.68
2018-03-02T06:15:01.401Z,-10.65
2018-03-02T06:17:27.219Z,-10.71
2018-03-02T06:19:53.052Z,-10.61
2018-03-02T06:22:18.900Z,-10.75
2018-03-02T06:24:44.682Z,-10.67
2018-03-02T06:27:10.519Z,-10.80
2018-03-02T06:29:36.331Z,-10.78
2018-03-02T06:32:02.142Z,-10.64
2018-03-02T06:34:27.934Z,-10.73
2018-03-02T06:36:53.735Z,-10.72
2018-03-02T06:39:19.665Z,-10.60
2018-03-02T06:41:45.462Z,-10.62
2018-03-02T06:44:11.244Z,-10.63
2018-03-02T06:46:37.224Z,-10.58
2018-03-02T06:49:03.026Z,-10.56
2018-03-02T06:51:28.815Z,-10.67
2018-03-02T06:53:54.859Z,-10.63
2018-03-02T06:56:20.639Z,-9.91
2018-03-02T06:58:46.430Z,-9.58
2018-03-02T07:01:12.231Z,-9.11
2018-03-02T07:03:38.014Z,-8.76
2018-03-02T07:06:03.806Z,-9.29
2018-03-02T07:08:29.699Z,-9.18
2018-03-02T07:10:55.477Z,-9.81
2018-03-02T07:13:21.266Z,-10.14
2018-03-02T07:15:47.050Z,-10.12
2018-03-02T07:18:12.846Z,-10.24
2018-03-02T07:20:38.706Z,-10.23
2018-03-02T07:23:04.498Z,-10.26
2018-03-02T07:25:30.285Z,-10.20
2018-03-02T07:27:56.129Z,-10.10
2018-03-02T07:30:21.927Z,-10.02
2018-03-02T07:32:47.718Z,-9.85
2018-03-02T07:35:13.766Z,-8.27
2018-03-02T07:37:39.548Z,-4.34
2018-03-02T07:40:05.330Z,-4.23
2018-03-02T07:42:31.138Z,-3.15
2018-03-02T07:44:56.998Z,-3.05
2018-03-02T07:47:22.775Z,-2.84
2018-03-02T07:49:48.755Z,-2.85
2018-03-02T07:52:14.548Z,-3.56
2018-03-02T07:54:40.342Z,-2.04
2018-03-02T07:57:06.259Z,-5.64
2018-03-02T07:59:32.140Z,-7.27
2018-03-02T08:01:57.938Z,-8.17
2018-03-02T08:04:23.797Z,-8.12
2018-03-02T08:06:49.527Z,-8.10
2018-03-02T08:09:15.318Z,-8.50
2018-03-02T08:11:41.127Z,-8.44
2018-03-02T08:14:06.903Z,-8.35
2018-03-02T08:16:32.794Z,-8.46
2018-03-02T08:18:58.598Z,-8.46
2018-03-02T08:21:24.381Z,-8.32
2018-03-02T08:23:50.190Z,-8.29
2018-03-02T08:26:15.988Z,-8.32
2018-03-02T08:28:41.834Z,-8.16
2018-03-02T08:31:07.652Z,-8.21
2018-03-02T08:33:33.491Z,-8.08
2018-03-02T08:35:59.266Z,-7.99
2018-03-02T08:38:25.219Z,-7.97
2018-03-02T08:40:51.002Z,-7.95
2018-03-02T08:43:16.882Z,-7.88
2018-03-02T08:45:42.775Z,-7.78
2018-03-02T08:48:08.598Z,-7.87
2018-03-02T08:50:34.406Z,-7.84
2018-03-02T08:53:00.202Z,-7.90
2018-03-02T08:55:25.995Z,-7.69
2018-03-02T08:57:51.854Z,-7.58
2018-03-02T09:00:17.610Z,-7.64
2018-03-02T09:02:43.398Z,-7.51
2018-03-02T09:05:09.231Z,-3.52
2018-03-02T09:07:35.042Z,-3.52
2018-03-02T09:10:00.826Z,-1.52
2018-03-02T09:12:26.687Z,-2.12
2018-03-02T09:14:52.490Z,-2.71
2018-03-02T09:17:18.323Z,-4.30
2018-03-02T09:19:44.152Z,-5.92
2018-03-02T09:22:09.956Z,-6.27
2018-03-02T09:24:35.794Z,-6.64
2018-03-02T09:27:01.615Z,-6.67
2018-03-02T09:29:27.403Z,-6.70
2018-03-02T09:31:53.477Z,-6.62
2018-03-02T09:34:19.295Z,-6.62
2018-03-02T09:36:45.194Z,-6.56
2018-03-02T09:39:11.548Z,-6.57
2018-03-02T09:41:37.347Z,-6.41
2018-03-02T09:44:03.253Z,-6.45
2018-03-02T09:46:29.068Z,-6.40
2018-03-02T09:48:54.867Z,-6.22
2018-03-02T09:51:20.693Z,-6.39
2018-03-02T09:53:46.504Z,-6.07
2018-03-02T09:56:12.420Z,-5.89
2018-03-02T09:58:38.231Z,-5.89
2018-03-02T10:01:04.104Z,-5.69
2018-03-02T10:03:29.904Z,-5.65
2018-03-02T10:05:55.692Z,-5.77
2018-03-02T10:08:21.515Z,-5.47
2018-03-02T10:10:47.335Z,-5.39
2018-03-02T10:13:13.130Z,-5.36
2018-03-02T10:15:38.956Z,-5.33
2018-03-02T10:18:04.776Z,-5.40
2018-03-02T10:20:30.580Z,-5.47
2018-03-02T10:22:56.506Z,-5.23
2018-03-02T10:25:22.513Z,-5.07
2018-03-02T10:27:48.364Z,-4.90
2018-03-02T10:30:14.201Z,-5.02
2018-03-02T10:32:40.002Z,-5.19
2018-03-02T10:35:05.801Z,-5.33
2018-03-02T10:37:31.583Z,-4.82
2018-03-02T10:39:57.396Z,-4.36
2018-03-02T10:42:23.191Z,-3.52
2018-03-02T10:44:48.982Z,-3.03
2018-03-02T10:47:14.766Z,-3.04
2018-03-02T10:49:40.864Z,-3.06
2018-03-02T10:52:06.668Z,-3.16
2018-03-02T10:54:32.463Z,-3.35
2018-03-02T10:56:58.273Z,-3.63
2018-03-02T10:59:24.146Z,-3.91
2018-03-02T11:01:53.944Z,-3.25
2018-03-02T11:04:19.726Z,-3.56
2018-03-02T11:06:45.556Z,-2.89
2018-03-02T11:09:11.340Z,-4.10
2018-03-02T11:11:37.130Z,-4.63
2018-03-02T11:14:02.964Z,-4.84
2018-03-02T11:16:28.782Z,-4.88
2018-03-02T11:18:54.576Z,-4.68
2018-03-02T11:21:20.372Z,-4.84
2018-03-02T11:23:46.211Z,-4.76
2018-03-02T11:26:12.011Z,-4.72
2018-03-02T11:28:37.872Z,-4.79
2018-03-02T11:31:03.678Z,-4.66
2018-03-02T11:33:29.552Z,-4.71
2018-03-02T11:35:55.361Z,-4.70
2018-03-02T11:38:21.135Z,-4.72
2018-03-02T11:40:46.918Z,-4.55
2018-03-02T11:43:12.741Z,-4.35
2018-03-02T11:45:38.532Z,-4.47
2018-03-02T11:48:04.350Z,-4.55
2018-03-02T11:50:30.146Z,-4.75
2018-03-02T11:52:55.939Z,-4.59
2018-03-02T11:55:21.729Z,-4.46
2018-03-02T11:57:47.534Z,-4.50
2018-03-02T12:00:13.343Z,-4.51
2018-03-02T12:02:39.132Z,-4.30
2018-03-02T12:05:04.926Z,-4.33
2018-03-02T12:07:30.748Z,-4.30
2018-03-02T12:09:56.560Z,-4.08
2018-03-02T12:12:22.408Z,-4.10
2018-03-02T12:14:48.488Z,-4.09
2018-03-02T12:17:14.283Z,-3.99
2018-03-02T12:19:40.067Z,-4.02
2018-03-02T12:22:05.863Z,-3.91
2018-03-02T12:24:31.661Z,-3.62
2018-03-02T12:26:57.450Z,-3.52
2018-03-02T12:29:23.491Z,-3.53
2018-03-02T12:31:49.283Z,-3.61
2018-03-02T12:34:15.085Z,-3.36
2018-03-02T12:36:40.895Z,-2.99
2018-03-02T12:39:06.672Z,-2.71
2018-03-02T12:41:32.467Z,-2.87
2018-03-02T12:43:58.274Z,-2.78
2018-03-02T12:46:24.051Z,-2.67
2018-03-02T12:48:49.891Z,-2.01
2018-03-02T12:51:15.680Z,-2.44
2018-03-02T12:53:41.470Z,-2.19
2018-03-02T12:56:07.590Z,-2.00
2018-03-02T12:58:33.381Z,-2.30
2018-03-02T13:00:59.184Z,-2.26
2018-03-02T13:03:25.077Z,-1.98
2018-03-02T13:05:50.892Z,-1.46
2018-03-02T13:08:16.664Z,-1.68
2018-03-02T13:10:42.487Z,-2.00
2018-03-02T13:13:08.279Z,-1.86
2018-03-02T13:15:34.077Z,-1.96
2018-03-02T13:17:59.883Z,-2.05
2018-03-02T13:20:25.742Z,-1.79
2018-03-02T13:22:51.519Z,-1.93
2018-03-02T13:25:17.336Z,-1.82
2018-03-02T13:27:55.859Z,-1.76
2018-03-02T13:30:21.686Z,-1.91
2018-03-02T13:33:00.025Z,-2.06
2018-03-02T13:35:25.829Z,-1.73
2018-03-02T13:37:51.615Z,-1.76
2018-03-02T13:40:29.843Z,-1.93
2018-03-02T13:42:55.636Z,-1.40
2018-03-02T13:45:21.410Z,-1.42
2018-03-02T13:50:53.974Z,-1.14
2018-03-02T13:53:19.787Z,-0.89
2018-03-02T13:55:45.567Z,-1.10
2018-03-02T13:58:11.347Z,-0.97
2018-03-02T14:00:37.425Z,-1.08
2018-03-02T14:03:15.548Z,-1.56
2018-03-02T14:05:41.345Z,-1.17
2018-03-02T14:08:07.130Z,-1.14
2018-03-02T14:10:33.019Z,-0.63
2018-03-02T14:12:58.811Z,-0.59
2018-03-02T14:15:24.662Z,-0.59
2018-03-02T14:17:50.450Z,-1.29
2018-03-02T14:20:16.284Z,-1.41
2018-03-02T14:22:42.070Z,-1.58
2018-03-02T14:25:07.892Z,-1.91
2018-03-02T14:27:33.718Z,-2.20
2018-03-02T14:29:59.523Z,-2.57
2018-03-02T14:32:25.357Z,-2.74
2018-03-02T14:34:51.200Z,-2.63
2018-03-02T14:37:16.988Z,-3.00
2018-03-02T14:39:42.781Z,-3.22
2018-03-02T14:42:08.591Z,-3.30
2018-03-02T14:44:34.389Z,-1.74
2018-03-02T14:47:00.171Z,-3.21
2018-03-02T14:49:25.990Z,-3.74
2018-03-02T14:51:51.781Z,-3.91
2018-03-02T14:54:17.598Z,-3.71
2018-03-02T14:56:43.459Z,-3.17
2018-03-02T14:59:09.230Z,-3.28
2018-03-02T15:01:35.018Z,-3.31
2018-03-02T15:04:00.796Z,-3.20
2018-03-02T15:06:26.596Z,-3.72
2018-03-02T15:08:52.410Z,-3.63
2018-03-02T15:11:18.222Z,-3.12
2018-03-02T15:13:44.018Z,-3.42
2018-03-02T15:16:10.090Z,-3.45
2018-03-02T15:18:35.880Z,-3.22
2018-03-02T15:21:01.647Z,-3.95
2018-03-02T15:23:27.625Z,-3.64
2018-03-02T15:25:53.420Z,-3.22
2018-03-02T15:28:19.219Z,-3.64
2018-03-02T15:30:45.019Z,-4.02
2018-03-02T15:33:10.806Z,-4.13
2018-03-02T15:35:36.598Z,-4.30
2018-03-02T15:38:02.405Z,-3.92
2018-03-02T15:40:28.202Z,-3.83
2018-03-02T15:42:53.990Z,-4.00
2018-03-02T15:45:19.809Z,-4.11
2018-03-02T15:47:50.295Z,-4.23
2018-03-02T15:50:16.092Z,-3.85
2018-03-02T15:52:41.891Z,-4.17
2018-03-02T15:55:07.695Z,-4.39
2018-03-02T15:57:33.476Z,-4.09
2018-03-02T15:59:59.327Z,-4.11
2018-03-02T16:02:25.130Z,-3.88
2018-03-02T16:04:50.915Z,-4.35
2018-03-02T16:07:16.789Z,-4.47
2018-03-02T16:09:42.580Z,-4.64
2018-03-02T16:12:08.703Z,-4.71
2018-03-02T16:14:34.495Z,-4.37
2018-03-02T16:17:00.276Z,-4.81
2018-03-02T16:19:26.060Z,-4.77
2018-03-02T16:21:51.839Z,-4.76
2018-03-02T16:24:17.622Z,-4.76
2018-03-02T16:26:43.414Z,-4.69
2018-03-02T16:29:09.218Z,-4.82
2018-03-02T16:31:35.023Z,-4.62
2018-03-02T16:34:00.808Z,-4.39
2018-03-02T16:36:26.603Z,-4.76
2018-03-02T16:38:52.418Z,-5.33
2018-03-02T16:41:18.199Z,-5.42
2018-03-02T16:43:43.999Z,-5.56
2018-03-02T16:46:09.814Z,-5.60
2018-03-02T16:48:35.614Z,-5.76
2018-03-02T16:51:01.402Z,-5.81
2018-03-02T16:53:27.261Z,-5.86
2018-03-02T16:55:53.047Z,-5.90
2018-03-02T16:58:18.846Z,-5.87
2018-03-02T17:00:44.670Z,-5.87
2018-03-02T17:03:10.488Z,-5.99
2018-03-02T17:05:36.407Z,-5.92
2018-03-02T17:08:02.228Z,-6.11
2018-03-02T17:10:28.005Z,-6.14
2018-03-02T17:12:53.803Z,-6.17
2018-03-02T17:15:19.611Z,-6.32
2018-03-02T17:17:45.402Z,-6.31
2018-03-02T17:20:11.219Z,-6.31
2018-03-02T17:22:37.023Z,-6.31
2018-03-02T17:25:02.811Z,-5.34
2018-03-02T17:27:28.598Z,-6.03
2018-03-02T17:29:54.408Z,-6.26
2018-03-02T17:32:20.221Z,-6.38
2018-03-02T17:34:46.428Z,-6.29
2018-03-02T17:37:12.236Z,-6.33
2018-03-02T17:39:38.028Z,-6.42
2018-03-02T17:42:03.842Z,-6.43
2018-03-02T17:44:29.635Z,-6.52
2018-03-02T17:46:55.483Z,-6.60
2018-03-02T17:49:22.674Z,-6.62
2018-03-02T17:51:48.464Z,-6.61
2018-03-02T17:54:14.292Z,-6.64
2018-03-02T17:56:40.552Z,-6.61
2018-03-02T17:59:06.341Z,-6.71
2018-03-02T18:01:32.135Z,-6.71
2018-03-02T18:03:57.948Z,-6.72
2018-03-02T18:06:24.347Z,-6.68
2018-03-02T18:08:50.239Z,-5.59
2018-03-02T18:11:16.058Z,-6.33
2018-03-02T18:13:41.846Z,-6.67
2018-03-02T18:16:07.707Z,-6.91
2018-03-02T18:18:33.552Z,-6.90
2018-03-02T18:20:59.343Z,-6.86
2018-03-02T18:23:32.095Z,-6.94
2018-03-02T18:25:58.885Z,-6.93
2018-03-02T18:28:27.166Z,-6.88
2018-03-02T18:30:54.585Z,-7.01
2018-03-02T18:33:21.637Z,-7.14
2018-03-02T18:35:48.987Z,-7.23
2018-03-02T18:38:16.259Z,-7.19
2018-03-02T18:40:43.596Z,-7.22
2018-03-02T18:43:09.427Z,-7.25
2018-03-02T18:45:35.868Z,-7.19
2018-03-02T18:48:01.993Z,-7.34
2018-03-02T18:50:27.877Z,-7.33
2018-03-02T18:52:53.675Z,-7.37
2018-03-02T18:55:19.498Z,-7.16
2018-03-02T18:57:45.363Z,-6.67
2018-03-02T19:00:11.166Z,-6.68
2018-03-02T19:02:37.007Z,-6.60
2018-03-02T19:05:02.832Z,-6.91
2018-03-02T19:07:28.652Z,-6.93
2018-03-02T19:09:54.464Z,-6.88
2018-03-02T19:12:20.287Z,-6.83
2018-03-02T19:14:46.629Z,-6.80
2018-03-02T19:17:12.462Z,-6.82
2018-03-02T19:19:38.938Z,-6.90
2018-03-02T19:22:04.763Z,-7.13
2018-03-02T19:24:30.779Z,-7.10
2018-03-02T19:26:56.648Z,-7.08
2018-03-02T19:29:22.726Z,-7.25
2018-03-02T19:31:48.641Z,-7.28
2018-03-02T19:34:14.576Z,-7.11
2018-03-02T19:36:40.937Z,-7.02
2018-03-02T19:39:07.120Z,-1.56
2018-03-02T19:41:33.228Z,-4.72
2018-03-02T19:43:59.155Z,-6.54
2018-03-02T19:46:24.976Z,-6.99
2018-03-02T19:48:50.885Z,-6.25
2018-03-02T19:51:16.696Z,-5.97
2018-03-02T19:53:42.508Z,-5.83
2018-03-02T19:56:08.397Z,-6.15
2018-03-02T19:58:34.794Z,-5.86
2018-03-02T20:01:00.667Z,-6.31
2018-03-02T20:03:26.815Z,-6.86
2018-03-02T20:05:52.604Z,-7.09
2018-03-02T20:08:18.680Z,-7.14
2018-03-02T20:10:44.531Z,-7.36
2018-03-02T20:13:10.333Z,-7.37
2018-03-02T20:15:36.239Z,-7.33
2018-03-02T20:18:02.128Z,-7.37
2018-03-02T20:20:27.953Z,-7.24
2018-03-02T20:22:53.799Z,-7.27
2018-03-02T20:25:19.630Z,-7.41
2018-03-02T20:27:45.443Z,-7.52
2018-03-02T20:30:12.181Z,-7.63
2018-03-02T20:32:38.079Z,-7.59
2018-03-02T20:35:03.876Z,-7.58
2018-03-02T20:37:30.036Z,-7.43
2018-03-02T20:39:55.861Z,-7.60
2018-03-02T20:42:21.695Z,-7.78
2018-03-02T20:44:47.510Z,-7.55
2018-03-02T20:47:13.307Z,-7.70
2018-03-02T20:49:40.292Z,-7.68
2018-03-02T20:52:07.277Z,-8.04
2018-03-02T20:54:33.296Z,-7.87
2018-03-02T20:56:59.388Z,-7.86
2018-03-02T20:59:25.214Z,-7.95
2018-03-02T21:01:51.368Z,-7.93
2018-03-02T21:04:17.165Z,-7.93
2018-03-02T21:06:43.526Z,-7.95
2018-03-02T21:09:09.323Z,-8.10
2018-03-02T21:11:35.135Z,-8.03
2018-03-02T21:14:00.984Z,-7.99
2018-03-02T21:16:27.072Z,-7.91
2018-03-02T21:18:52.861Z,-8.31
2018-03-02T21:21:19.067Z,-7.99
2018-03-02T21:23:44.861Z,-8.14
2018-03-02T21:26:10.677Z,-8.20
2018-03-02T21:28:36.501Z,-8.10
2018-03-02T21:31:02.670Z,-8.35
2018-03-02T21:33:32.450Z,-8.26
2018-03-02T21:35:56.494Z,-8.18
2018-03-02T21:38:22.300Z,-8.12
2018-03-02T21:40:48.894Z,-8.24
2018-03-02T21:43:14.817Z,-8.49
2018-03-02T21:45:40.933Z,-8.22
2018-03-02T21:48:06.860Z,-8.12
2018-03-02T21:50:32.675Z,-8.37
2018-03-02T21:52:58.616Z,-8.31
2018-03-02T21:55:24.415Z,-8.29
2018-03-02T21:57:50.217Z,-8.14
2018-03-02T22:00:16.083Z,-8.05
2018-03-02T22:02:43.048Z,-8.14
2018-03-02T22:05:08.851Z,-8.22
2018-03-02T22:07:35.667Z,-8.43
2018-03-02T22:10:01.482Z,-8.27
2018-03-02T22:12:27.405Z,-8.09
2018-03-02T22:14:54.041Z,-8.22
2018-03-02T22:17:20.496Z,-8.31
2018-03-02T22:19:46.409Z,-8.16
2018-03-02T22:22:20.109Z,-8.19
2018-03-02T22:24:45.902Z,-8.52
2018-03-02T22:27:12.240Z,-8.61
2018-03-02T22:29:38.114Z,-8.61
2018-03-02T22:32:04.584Z,-8.65
2018-03-02T22:34:30.610Z,-8.46
2018-03-02T22:36:56.680Z,-8.55
2018-03-02T22:39:22.506Z,-8.57
2018-03-02T22:41:48.327Z,-8.56
2018-03-02T22:44:14.326Z,-8.51
2018-03-02T22:46:40.135Z,-8.74
2018-03-02T22:49:06.904Z,-8.62
2018-03-02T22:51:32.689Z,-8.72
2018-03-02T22:53:58.663Z,-8.59
2018-03-02T22:56:24.442Z,-8.46
2018-03-02T22:58:50.244Z,-8.52
2018-03-02T23:01:16.067Z,-8.59
2018-03-02T23:03:41.843Z,-8.32
2018-03-02T23:06:07.639Z,-8.09
2018-03-02T23:08:33.455Z,-8.22
2018-03-02T23:10:59.242Z,-8.44
2018-03-02T23:13:25.467Z,-8.28
2018-03-02T23:15:51.266Z,-8.30
2018-03-02T23:18:17.756Z,-8.20
2018-03-02T23:20:43.597Z,-8.58
2018-03-02T23:23:09.416Z,-8.46
2018-03-02T23:25:35.247Z,-8.39
2018-03-02T23:28:01.086Z,-8.48
2018-03-02T23:30:26.891Z,-8.50
2018-03-02T23:32:52.695Z,-8.59
2018-03-02T23:35:18.512Z,-8.61
2018-03-02T23:37:44.428Z,-8.31
2018-03-02T23:40:10.570Z,-8.60
2018-03-02T23:42:36.385Z,-8.75
2018-03-02T23:45:02.207Z,-8.67
2018-03-02T23:47:27.988Z,-8.60
2018-03-02T23:49:53.796Z,-8.82
2018-03-02T23:52:19.605Z,-8.80
2018-03-02T23:54:45.404Z,-8.91
2018-03-02T23:57:11.183Z,-8.57
2018-03-02T23:59:36.974Z,-8.54
